sensor_id;sensor_type;location;lat;lon;timestamp;temperature;humidity
31443;SHT31;18065;55.876;9.830;2023-12-20T00:00:09;21.66;49.08
31443;SHT31;18065;55.876;9.830;2023-12-20T00:02:38;21.69;49.17
31443;SHT31;18065;55.876;9.830;2023-12-20T00:05:12;21.67;49.13
31443;SHT31;18065;55.876;9.830;2023-12-20T00:07:41;21.67;49.16
31443;SHT31;18065;55.876;9.830;2023-12-20T00:10:10;21.66;49.11
31443;SHT31;18065;55.876;9.830;2023-12-20T00:12:39;21.69;49.16
31443;SHT31;18065;55.876;9.830;2023-12-20T00:15:11;21.66;49.13
31443;SHT31;18065;55.876;9.830;2023-12-20T00:17:40;21.70;49.13
31443;SHT31;18065;55.876;9.830;2023-12-20T00:20:10;21.66;49.12
31443;SHT31;18065;55.876;9.830;2023-12-20T00:22:39;21.69;49.21
31443;SHT31;18065;55.876;9.830;2023-12-20T00:25:08;21.65;49.12
31443;SHT31;18065;55.876;9.830;2023-12-20T00:27:37;21.67;49.17
31443;SHT31;18065;55.876;9.830;2023-12-20T00:30:07;21.69;49.09
31443;SHT31;18065;55.876;9.830;2023-12-20T00:32:39;21.67;49.14
31443;SHT31;18065;55.876;9.830;2023-12-20T00:35:11;21.65;49.25
31443;SHT31;18065;55.876;9.830;2023-12-20T00:37:41;21.67;49.09
31443;SHT31;18065;55.876;9.830;2023-12-20T00:40:10;21.65;49.15
31443;SHT31;18065;55.876;9.830;2023-12-20T00:42:39;21.66;49.15
31443;SHT31;18065;55.876;9.830;2023-12-20T00:45:09;21.66;49.13
31443;SHT31;18065;55.876;9.830;2023-12-20T00:47:40;21.69;49.03
31443;SHT31;18065;55.876;9.830;2023-12-20T00:50:09;21.62;49.22
31443;SHT31;18065;55.876;9.830;2023-12-20T00:52:38;21.66;49.09
31443;SHT31;18065;55.876;9.830;2023-12-20T00:55:07;21.65;49.18
31443;SHT31;18065;55.876;9.830;2023-12-20T00:57:36;21.63;49.12
31443;SHT31;18065;55.876;9.830;2023-12-20T01:00:06;21.62;49.25
31443;SHT31;18065;55.876;9.830;2023-12-20T01:02:36;21.65;49.16
31443;SHT31;18065;55.876;9.830;2023-12-20T01:05:08;21.63;49.13
31443;SHT31;18065;55.876;9.830;2023-12-20T01:07:37;21.65;49.07
31443;SHT31;18065;55.876;9.830;2023-12-20T01:10:06;21.66;49.10
31443;SHT31;18065;55.876;9.830;2023-12-20T01:12:36;21.65;49.11
31443;SHT31;18065;55.876;9.830;2023-12-20T01:15:06;21.65;49.05
31443;SHT31;18065;55.876;9.830;2023-12-20T01:17:35;21.65;49.07
31443;SHT31;18065;55.876;9.830;2023-12-20T01:20:07;21.65;49.18
31443;SHT31;18065;55.876;9.830;2023-12-20T01:22:36;21.63;49.13
31443;SHT31;18065;55.876;9.830;2023-12-20T01:25:06;21.62;49.14
31443;SHT31;18065;55.876;9.830;2023-12-20T01:27:35;21.65;49.13
31443;SHT31;18065;55.876;9.830;2023-12-20T01:30:05;21.62;49.24
31443;SHT31;18065;55.876;9.830;2023-12-20T01:32:34;21.62;49.09
31443;SHT31;18065;55.876;9.830;2023-12-20T01:35:04;21.65;49.03
31443;SHT31;18065;55.876;9.830;2023-12-20T01:37:35;21.63;49.06
31443;SHT31;18065;55.876;9.830;2023-12-20T01:40:05;21.63;49.08
31443;SHT31;18065;55.876;9.830;2023-12-20T01:42:34;21.63;49.13
31443;SHT31;18065;55.876;9.830;2023-12-20T01:45:04;21.66;49.07
31443;SHT31;18065;55.876;9.830;2023-12-20T01:47:33;21.65;49.08
31443;SHT31;18065;55.876;9.830;2023-12-20T01:50:03;21.66;48.94
31443;SHT31;18065;55.876;9.830;2023-12-20T01:52:36;21.66;49.05
31443;SHT31;18065;55.876;9.830;2023-12-20T01:55:06;21.65;48.99
31443;SHT31;18065;55.876;9.830;2023-12-20T01:57:39;21.62;49.01
31443;SHT31;18065;55.876;9.830;2023-12-20T02:00:09;21.66;48.97
31443;SHT31;18065;55.876;9.830;2023-12-20T02:02:40;21.60;49.05
31443;SHT31;18065;55.876;9.830;2023-12-20T02:05:09;21.62;49.00
31443;SHT31;18065;55.876;9.830;2023-12-20T02:07:41;21.60;49.02
31443;SHT31;18065;55.876;9.830;2023-12-20T02:10:09;21.59;49.15
31443;SHT31;18065;55.876;9.830;2023-12-20T02:12:38;21.62;49.04
31443;SHT31;18065;55.876;9.830;2023-12-20T02:15:07;21.62;49.12
31443;SHT31;18065;55.876;9.830;2023-12-20T02:17:36;21.59;49.04
31443;SHT31;18065;55.876;9.830;2023-12-20T02:20:07;21.59;49.07
31443;SHT31;18065;55.876;9.830;2023-12-20T02:22:39;21.62;48.97
31443;SHT31;18065;55.876;9.830;2023-12-20T02:25:08;21.60;49.01
31443;SHT31;18065;55.876;9.830;2023-12-20T02:27:37;21.60;49.00
31443;SHT31;18065;55.876;9.830;2023-12-20T02:30:07;21.59;49.11
31443;SHT31;18065;55.876;9.830;2023-12-20T02:32:36;21.62;49.08
31443;SHT31;18065;55.876;9.830;2023-12-20T02:35:06;21.60;49.04
31443;SHT31;18065;55.876;9.830;2023-12-20T02:37:38;21.60;49.05
31443;SHT31;18065;55.876;9.830;2023-12-20T02:40:07;21.62;49.02
31443;SHT31;18065;55.876;9.830;2023-12-20T02:42:36;21.58;49.06
31443;SHT31;18065;55.876;9.830;2023-12-20T02:45:07;21.59;49.03
31443;SHT31;18065;55.876;9.830;2023-12-20T02:47:36;21.62;48.97
31443;SHT31;18065;55.876;9.830;2023-12-20T02:50:05;21.62;48.96
31443;SHT31;18065;55.876;9.830;2023-12-20T02:52:34;21.59;49.00
31443;SHT31;18065;55.876;9.830;2023-12-20T02:55:06;21.60;49.19
31443;SHT31;18065;55.876;9.830;2023-12-20T02:57:35;21.58;49.02
31443;SHT31;18065;55.876;9.830;2023-12-20T03:00:08;21.59;49.06
31443;SHT31;18065;55.876;9.830;2023-12-20T03:02:37;21.58;48.99
31443;SHT31;18065;55.876;9.830;2023-12-20T03:05:07;21.58;49.01
31443;SHT31;18065;55.876;9.830;2023-12-20T03:07:36;21.58;49.00
31443;SHT31;18065;55.876;9.830;2023-12-20T03:10:09;21.58;49.06
31443;SHT31;18065;55.876;9.830;2023-12-20T03:12:38;21.56;49.07
31443;SHT31;18065;55.876;9.830;2023-12-20T03:15:07;21.56;49.13
31443;SHT31;18065;55.876;9.830;2023-12-20T03:17:36;21.58;49.05
31443;SHT31;18065;55.876;9.830;2023-12-20T03:20:07;21.60;48.98
31443;SHT31;18065;55.876;9.830;2023-12-20T03:22:36;21.58;48.93
31443;SHT31;18065;55.876;9.830;2023-12-20T03:25:08;21.56;49.02
31443;SHT31;18065;55.876;9.830;2023-12-20T03:27:37;21.56;49.13
31443;SHT31;18065;55.876;9.830;2023-12-20T03:30:08;21.56;49.03
31443;SHT31;18065;55.876;9.830;2023-12-20T03:32:37;21.58;49.04
31443;SHT31;18065;55.876;9.830;2023-12-20T03:35:06;21.56;48.99
31443;SHT31;18065;55.876;9.830;2023-12-20T03:37:35;21.55;49.15
31443;SHT31;18065;55.876;9.830;2023-12-20T03:40:05;21.55;49.20
31443;SHT31;18065;55.876;9.830;2023-12-20T03:42:37;21.53;49.09
31443;SHT31;18065;55.876;9.830;2023-12-20T03:45:07;21.58;49.07
31443;SHT31;18065;55.876;9.830;2023-12-20T03:47:36;21.56;49.03
31443;SHT31;18065;55.876;9.830;2023-12-20T03:50:06;21.53;49.11
31443;SHT31;18065;55.876;9.830;2023-12-20T03:52:35;21.56;49.07
31443;SHT31;18065;55.876;9.830;2023-12-20T03:55:05;21.55;49.02
31443;SHT31;18065;55.876;9.830;2023-12-20T03:57:36;21.50;49.09
31443;SHT31;18065;55.876;9.830;2023-12-20T04:00:07;21.55;49.08
31443;SHT31;18065;55.876;9.830;2023-12-20T04:02:37;21.52;49.12
31443;SHT31;18065;55.876;9.830;2023-12-20T04:05:08;21.58;48.99
31443;SHT31;18065;55.876;9.830;2023-12-20T04:07:37;21.53;49.00
31443;SHT31;18065;55.876;9.830;2023-12-20T04:10:07;21.56;49.06
31443;SHT31;18065;55.876;9.830;2023-12-20T04:12:39;21.53;49.09
31443;SHT31;18065;55.876;9.830;2023-12-20T04:15:08;21.53;49.03
31443;SHT31;18065;55.876;9.830;2023-12-20T04:17:38;21.55;49.04
31443;SHT31;18065;55.876;9.830;2023-12-20T04:20:08;21.53;49.03
31443;SHT31;18065;55.876;9.830;2023-12-20T04:22:37;21.50;49.14
31443;SHT31;18065;55.876;9.830;2023-12-20T04:25:06;21.49;49.21
31443;SHT31;18065;55.876;9.830;2023-12-20T04:27:38;21.52;49.10
31443;SHT31;18065;55.876;9.830;2023-12-20T04:30:08;21.50;49.07
31443;SHT31;18065;55.876;9.830;2023-12-20T04:32:37;21.53;48.96
31443;SHT31;18065;55.876;9.830;2023-12-20T04:35:06;21.53;49.01
31443;SHT31;18065;55.876;9.830;2023-12-20T04:37:35;21.52;49.05
31443;SHT31;18065;55.876;9.830;2023-12-20T04:40:05;21.52;49.03
31443;SHT31;18065;55.876;9.830;2023-12-20T04:42:35;21.49;49.12
31443;SHT31;18065;55.876;9.830;2023-12-20T04:45:07;21.50;49.00
31443;SHT31;18065;55.876;9.830;2023-12-20T04:47:38;21.52;49.03
31443;SHT31;18065;55.876;9.830;2023-12-20T04:50:08;21.49;49.06
31443;SHT31;18065;55.876;9.830;2023-12-20T04:52:39;21.49;49.05
31443;SHT31;18065;55.876;9.830;2023-12-20T04:55:08;21.49;49.11
31443;SHT31;18065;55.876;9.830;2023-12-20T04:57:37;21.50;49.05
31443;SHT31;18065;55.876;9.830;2023-12-20T05:00:11;21.48;49.09
31443;SHT31;18065;55.876;9.830;2023-12-20T05:02:41;21.45;49.14
31443;SHT31;18065;55.876;9.830;2023-12-20T05:05:10;21.46;49.18
31443;SHT31;18065;55.876;9.830;2023-12-20T05:07:40;21.46;49.20
31443;SHT31;18065;55.876;9.830;2023-12-20T05:10:09;21.48;49.05
31443;SHT31;18065;55.876;9.830;2023-12-20T05:12:38;21.45;49.12
31443;SHT31;18065;55.876;9.830;2023-12-20T05:15:11;21.45;49.03
31443;SHT31;18065;55.876;9.830;2023-12-20T05:17:40;21.42;49.13
31443;SHT31;18065;55.876;9.830;2023-12-20T05:20:09;21.48;49.05
31443;SHT31;18065;55.876;9.830;2023-12-20T05:22:38;21.43;49.15
31443;SHT31;18065;55.876;9.830;2023-12-20T05:25:07;21.43;49.22
31443;SHT31;18065;55.876;9.830;2023-12-20T05:27:36;21.45;49.02
31443;SHT31;18065;55.876;9.830;2023-12-20T05:30:06;21.46;49.07
31443;SHT31;18065;55.876;9.830;2023-12-20T05:32:38;21.45;49.06
31443;SHT31;18065;55.876;9.830;2023-12-20T05:35:07;21.43;49.03
31443;SHT31;18065;55.876;9.830;2023-12-20T05:37:36;21.42;49.32
31443;SHT31;18065;55.876;9.830;2023-12-20T05:40:06;21.43;49.17
31443;SHT31;18065;55.876;9.830;2023-12-20T05:42:36;21.46;49.07
31443;SHT31;18065;55.876;9.830;2023-12-20T05:45:05;21.46;49.02
31443;SHT31;18065;55.876;9.830;2023-12-20T05:47:34;21.43;49.38
31443;SHT31;18065;55.876;9.830;2023-12-20T05:50:07;21.45;50.59
31443;SHT31;18065;55.876;9.830;2023-12-20T05:52:36;21.48;51.44
31443;SHT31;18065;55.876;9.830;2023-12-20T05:55:05;21.55;51.88
31443;SHT31;18065;55.876;9.830;2023-12-20T05:57:35;21.59;52.32
31443;SHT31;18065;55.876;9.830;2023-12-20T06:00:05;21.62;52.65
31443;SHT31;18065;55.876;9.830;2023-12-20T06:02:35;22.22;51.06
31443;SHT31;18065;55.876;9.830;2023-12-20T06:05:07;24.20;45.03
31443;SHT31;18065;55.876;9.830;2023-12-20T06:07:36;26.37;40.36
31443;SHT31;18065;55.876;9.830;2023-12-20T06:10:06;27.41;38.39
31443;SHT31;18065;55.876;9.830;2023-12-20T06:12:35;27.74;37.83
31443;SHT31;18065;55.876;9.830;2023-12-20T06:15:05;27.62;38.17
31443;SHT31;18065;55.876;9.830;2023-12-20T06:17:34;27.50;38.46
31443;SHT31;18065;55.876;9.830;2023-12-20T06:20:07;27.34;38.90
31443;SHT31;18065;55.876;9.830;2023-12-20T06:22:36;27.09;39.37
31443;SHT31;18065;55.876;9.830;2023-12-20T06:25:05;26.59;39.36
31443;SHT31;18065;55.876;9.830;2023-12-20T06:27:34;26.31;40.16
31443;SHT31;18065;55.876;9.830;2023-12-20T06:30:04;26.08;41.19
31443;SHT31;18065;55.876;9.830;2023-12-20T06:32:34;25.81;41.68
31443;SHT31;18065;55.876;9.830;2023-12-20T06:35:08;25.62;41.98
31443;SHT31;18065;55.876;9.830;2023-12-20T06:37:37;25.46;42.38
31443;SHT31;18065;55.876;9.830;2023-12-20T06:40:05;25.46;42.29
31443;SHT31;18065;55.876;9.830;2023-12-20T06:42:34;25.33;42.36
31443;SHT31;18065;55.876;9.830;2023-12-20T06:45:04;25.22;42.48
31443;SHT31;18065;55.876;9.830;2023-12-20T06:47:33;25.10;42.82
31443;SHT31;18065;55.876;9.830;2023-12-20T06:50:02;24.95;43.06
31443;SHT31;18065;55.876;9.830;2023-12-20T06:52:34;24.78;43.26
31443;SHT31;18065;55.876;9.830;2023-12-20T06:55:04;24.63;43.53
31443;SHT31;18065;55.876;9.830;2023-12-20T06:57:33;24.52;43.69
31443;SHT31;18065;55.876;9.830;2023-12-20T07:00:02;24.52;43.57
31443;SHT31;18065;55.876;9.830;2023-12-20T07:02:31;24.44;43.71
31443;SHT31;18065;55.876;9.830;2023-12-20T07:05:00;24.39;43.93
31443;SHT31;18065;55.876;9.830;2023-12-20T07:07:30;24.30;44.18
31443;SHT31;18065;55.876;9.830;2023-12-20T07:10:01;24.25;44.59
31443;SHT31;18065;55.876;9.830;2023-12-20T07:12:30;24.17;44.79
31443;SHT31;18065;55.876;9.830;2023-12-20T07:14:59;24.10;45.14
31443;SHT31;18065;55.876;9.830;2023-12-20T07:17:28;24.03;45.20
31443;SHT31;18065;55.876;9.830;2023-12-20T07:19:58;23.96;45.50
31443;SHT31;18065;55.876;9.830;2023-12-20T07:22:29;23.91;45.76
31443;SHT31;18065;55.876;9.830;2023-12-20T07:25:01;23.78;45.45
31443;SHT31;18065;55.876;9.830;2023-12-20T07:27:30;23.74;45.95
31443;SHT31;18065;55.876;9.830;2023-12-20T07:29:59;23.40;45.20
31443;SHT31;18065;55.876;9.830;2023-12-20T07:32:27;23.50;45.37
31443;SHT31;18065;55.876;9.830;2023-12-20T07:34:57;23.53;45.87
31443;SHT31;18065;55.876;9.830;2023-12-20T07:37:26;23.50;46.12
31443;SHT31;18065;55.876;9.830;2023-12-20T07:39:55;23.48;46.22
31443;SHT31;18065;55.876;9.830;2023-12-20T07:42:27;23.44;46.53
31443;SHT31;18065;55.876;9.830;2023-12-20T07:44:55;23.40;46.33
31443;SHT31;18065;55.876;9.830;2023-12-20T07:47:24;23.37;46.76
31443;SHT31;18065;55.876;9.830;2023-12-20T07:49:53;23.34;47.31
31443;SHT31;18065;55.876;9.830;2023-12-20T07:52:22;23.27;47.10
31443;SHT31;18065;55.876;9.830;2023-12-20T07:54:51;23.27;47.65
31443;SHT31;18065;55.876;9.830;2023-12-20T07:57:20;23.24;47.73
31443;SHT31;18065;55.876;9.830;2023-12-20T07:59:52;23.20;47.94
31443;SHT31;18065;55.876;9.830;2023-12-20T08:02:21;23.17;48.12
31443;SHT31;18065;55.876;9.830;2023-12-20T08:04:50;23.16;48.22
31443;SHT31;18065;55.876;9.830;2023-12-20T08:07:18;23.16;48.69
31443;SHT31;18065;55.876;9.830;2023-12-20T08:09:47;23.16;48.85
31443;SHT31;18065;55.876;9.830;2023-12-20T08:12:17;23.14;48.92
31443;SHT31;18065;55.876;9.830;2023-12-20T08:14:46;23.10;48.96
31443;SHT31;18065;55.876;9.830;2023-12-20T08:17:18;23.14;49.05
31443;SHT31;18065;55.876;9.830;2023-12-20T08:19:47;23.10;49.17
31443;SHT31;18065;55.876;9.830;2023-12-20T08:22:15;23.12;49.24
31443;SHT31;18065;55.876;9.830;2023-12-20T08:24:44;23.10;49.33
31443;SHT31;18065;55.876;9.830;2023-12-20T08:27:13;23.12;49.73
31443;SHT31;18065;55.876;9.830;2023-12-20T08:29:44;23.07;49.52
31443;SHT31;18065;55.876;9.830;2023-12-20T08:32:13;23.04;49.18
31443;SHT31;18065;55.876;9.830;2023-12-20T08:34:44;23.04;48.90
31443;SHT31;18065;55.876;9.830;2023-12-20T08:37:13;22.86;47.14
31443;SHT31;18065;55.876;9.830;2023-12-20T08:39:42;22.96;47.87
31443;SHT31;18065;55.876;9.830;2023-12-20T08:42:12;22.95;47.51
31443;SHT31;18065;55.876;9.830;2023-12-20T08:44:41;22.85;47.16
31443;SHT31;18065;55.876;9.830;2023-12-20T08:47:09;22.89;47.90
31443;SHT31;18065;55.876;9.830;2023-12-20T08:49:44;22.92;48.28
31443;SHT31;18065;55.876;9.830;2023-12-20T08:52:13;22.93;48.54
31443;SHT31;18065;55.876;9.830;2023-12-20T08:54:42;22.96;48.69
31443;SHT31;18065;55.876;9.830;2023-12-20T08:57:11;22.99;48.80
31443;SHT31;18065;55.876;9.830;2023-12-20T08:59:39;22.99;49.00
31443;SHT31;18065;55.876;9.830;2023-12-20T09:02:08;22.99;49.18
31443;SHT31;18065;55.876;9.830;2023-12-20T09:04:37;22.97;49.22
31443;SHT31;18065;55.876;9.830;2023-12-20T09:07:21;22.86;48.29
31443;SHT31;18065;55.876;9.830;2023-12-20T09:09:49;22.64;47.04
31443;SHT31;18065;55.876;9.830;2023-12-20T09:12:18;22.66;46.93
31443;SHT31;18065;55.876;9.830;2023-12-20T09:14:48;22.64;47.16
31443;SHT31;18065;55.876;9.830;2023-12-20T09:17:17;22.72;47.40
31443;SHT31;18065;55.876;9.830;2023-12-20T09:19:48;22.77;47.81
31443;SHT31;18065;55.876;9.830;2023-12-20T09:22:20;22.97;47.45
31443;SHT31;18065;55.876;9.830;2023-12-20T09:24:49;23.51;46.13
31443;SHT31;18065;55.876;9.830;2023-12-20T09:27:18;23.84;45.40
31443;SHT31;18065;55.876;9.830;2023-12-20T09:29:47;23.86;44.93
31443;SHT31;18065;55.876;9.830;2023-12-20T09:32:16;23.50;44.97
31443;SHT31;18065;55.876;9.830;2023-12-20T09:34:46;23.79;44.59
31443;SHT31;18065;55.876;9.830;2023-12-20T09:37:15;23.95;44.63
31443;SHT31;18065;55.876;9.830;2023-12-20T09:39:47;24.02;44.57
31443;SHT31;18065;55.876;9.830;2023-12-20T09:42:19;24.05;44.53
31443;SHT31;18065;55.876;9.830;2023-12-20T09:44:50;24.06;44.63
31443;SHT31;18065;55.876;9.830;2023-12-20T09:47:20;24.08;44.62
31443;SHT31;18065;55.876;9.830;2023-12-20T09:49:52;24.05;44.74
31443;SHT31;18065;55.876;9.830;2023-12-20T09:52:22;24.05;44.82
31443;SHT31;18065;55.876;9.830;2023-12-20T09:54:56;24.03;44.85
31443;SHT31;18065;55.876;9.830;2023-12-20T09:57:25;23.99;45.03
31443;SHT31;18065;55.876;9.830;2023-12-20T09:59:54;23.98;45.33
31443;SHT31;18065;55.876;9.830;2023-12-20T10:02:24;23.95;45.42
31443;SHT31;18065;55.876;9.830;2023-12-20T10:04:55;23.91;46.10
31443;SHT31;18065;55.876;9.830;2023-12-20T10:07:24;23.89;45.63
31443;SHT31;18065;55.876;9.830;2023-12-20T10:09:56;23.85;45.68
31443;SHT31;18065;55.876;9.830;2023-12-20T10:12:24;23.77;45.91
31443;SHT31;18065;55.876;9.830;2023-12-20T10:14:53;23.74;45.80
31443;SHT31;18065;55.876;9.830;2023-12-20T10:17:22;23.69;45.87
31443;SHT31;18065;55.876;9.830;2023-12-20T10:19:54;23.65;45.89
31443;SHT31;18065;55.876;9.830;2023-12-20T10:22:24;23.59;45.75
31443;SHT31;18065;55.876;9.830;2023-12-20T10:24:56;23.57;45.74
31443;SHT31;18065;55.876;9.830;2023-12-20T10:27:25;23.54;45.71
31443;SHT31;18065;55.876;9.830;2023-12-20T10:29:59;23.51;45.87
31443;SHT31;18065;55.876;9.830;2023-12-20T10:32:27;23.53;45.87
31443;SHT31;18065;55.876;9.830;2023-12-20T10:34:57;23.50;45.78
31443;SHT31;18065;55.876;9.830;2023-12-20T10:37:26;23.50;45.80
31443;SHT31;18065;55.876;9.830;2023-12-20T10:39:59;23.47;45.64
31443;SHT31;18065;55.876;9.830;2023-12-20T10:42:29;23.45;45.78
31443;SHT31;18065;55.876;9.830;2023-12-20T10:44:59;23.44;45.69
31443;SHT31;18065;55.876;9.830;2023-12-20T10:47:30;23.43;45.73
31443;SHT31;18065;55.876;9.830;2023-12-20T10:50:01;23.40;45.76
31443;SHT31;18065;55.876;9.830;2023-12-20T10:52:32;23.36;45.74
31443;SHT31;18065;55.876;9.830;2023-12-20T10:55:05;23.34;45.66
31443;SHT31;18065;55.876;9.830;2023-12-20T10:57:36;23.36;45.76
31443;SHT31;18065;55.876;9.830;2023-12-20T11:00:09;23.30;45.75
31443;SHT31;18065;55.876;9.830;2023-12-20T11:02:42;23.31;45.78
31443;SHT31;18065;55.876;9.830;2023-12-20T11:05:22;23.27;45.69
31443;SHT31;18065;55.876;9.830;2023-12-20T11:07:57;23.24;45.80
31443;SHT31;18065;55.876;9.830;2023-12-20T11:10:36;22.96;45.92
31443;SHT31;18065;55.876;9.830;2023-12-20T11:13:10;22.80;46.26
31443;SHT31;18065;55.876;9.830;2023-12-20T11:15:41;23.03;45.93
31443;SHT31;18065;55.876;9.830;2023-12-20T11:18:10;23.12;46.04
31443;SHT31;18065;55.876;9.830;2023-12-20T11:20:40;23.19;46.32
31443;SHT31;18065;55.876;9.830;2023-12-20T11:23:09;23.22;46.43
31443;SHT31;18065;55.876;9.830;2023-12-20T11:25:52;23.23;46.77
31443;SHT31;18065;55.876;9.830;2023-12-20T11:28:23;23.27;46.93
31443;SHT31;18065;55.876;9.830;2023-12-20T11:30:53;23.31;47.16
31443;SHT31;18065;55.876;9.830;2023-12-20T11:33:22;23.34;47.42
31443;SHT31;18065;55.876;9.830;2023-12-20T11:35:51;23.33;47.54
31443;SHT31;18065;55.876;9.830;2023-12-20T11:38:20;23.36;47.76
31443;SHT31;18065;55.876;9.830;2023-12-20T11:40:54;23.34;47.79
31443;SHT31;18065;55.876;9.830;2023-12-20T11:43:31;23.36;48.04
31443;SHT31;18065;55.876;9.830;2023-12-20T11:46:04;23.43;48.02
31443;SHT31;18065;55.876;9.830;2023-12-20T11:48:35;23.00;46.55
31443;SHT31;18065;55.876;9.830;2023-12-20T11:51:09;22.79;46.52
31443;SHT31;18065;55.876;9.830;2023-12-20T11:53:38;22.62;47.09
31443;SHT31;18065;55.876;9.830;2023-12-20T11:56:10;22.85;46.63
31443;SHT31;18065;55.876;9.830;2023-12-20T11:58:39;22.93;46.53
31443;SHT31;18065;55.876;9.830;2023-12-20T12:01:08;22.95;46.53
31443;SHT31;18065;55.876;9.830;2023-12-20T12:03:37;22.93;46.52
31443;SHT31;18065;55.876;9.830;2023-12-20T12:06:06;22.95;46.77
31443;SHT31;18065;55.876;9.830;2023-12-20T12:08:35;23.06;47.13
31443;SHT31;18065;55.876;9.830;2023-12-20T12:11:05;23.13;47.47
31443;SHT31;18065;55.876;9.830;2023-12-20T12:13:36;23.19;47.53
31443;SHT31;18065;55.876;9.830;2023-12-20T12:16:05;23.22;47.65
31443;SHT31;18065;55.876;9.830;2023-12-20T12:18:35;23.26;47.71
31443;SHT31;18065;55.876;9.830;2023-12-20T12:21:04;23.28;47.73
31443;SHT31;18065;55.876;9.830;2023-12-20T12:23:33;23.33;47.87
31443;SHT31;18065;55.876;9.830;2023-12-20T12:26:04;23.34;47.85
31443;SHT31;18065;55.876;9.830;2023-12-20T12:28:37;23.33;48.02
31443;SHT31;18065;55.876;9.830;2023-12-20T12:31:12;23.37;48.18
31443;SHT31;18065;55.876;9.830;2023-12-20T12:33:41;23.36;47.96
31443;SHT31;18065;55.876;9.830;2023-12-20T12:36:10;23.36;47.66
31443;SHT31;18065;55.876;9.830;2023-12-20T12:38:41;23.31;47.48
31443;SHT31;18065;55.876;9.830;2023-12-20T12:41:12;23.28;47.23
31443;SHT31;18065;55.876;9.830;2023-12-20T12:43:44;23.28;47.09
31443;SHT31;18065;55.876;9.830;2023-12-20T12:46:13;23.26;46.95
31443;SHT31;18065;55.876;9.830;2023-12-20T12:48:43;23.22;46.81
31443;SHT31;18065;55.876;9.830;2023-12-20T12:51:12;23.22;46.74
31443;SHT31;18065;55.876;9.830;2023-12-20T12:53:41;23.22;46.69
31443;SHT31;18065;55.876;9.830;2023-12-20T12:56:10;23.20;46.99
31443;SHT31;18065;55.876;9.830;2023-12-20T12:58:43;23.24;47.57
31443;SHT31;18065;55.876;9.830;2023-12-20T13:01:12;23.27;47.75
31443;SHT31;18065;55.876;9.830;2023-12-20T13:03:41;23.27;47.92
31443;SHT31;18065;55.876;9.830;2023-12-20T13:06:10;23.30;47.99
31443;SHT31;18065;55.876;9.830;2023-12-20T13:08:39;23.31;47.90
31443;SHT31;18065;55.876;9.830;2023-12-20T13:11:08;23.30;47.69
31443;SHT31;18065;55.876;9.830;2023-12-20T13:13:37;23.26;47.52
31443;SHT31;18065;55.876;9.830;2023-12-20T13:16:08;23.26;47.43
31443;SHT31;18065;55.876;9.830;2023-12-20T13:18:37;23.22;47.39
31443;SHT31;18065;55.876;9.830;2023-12-20T13:21:08;23.22;47.25
31443;SHT31;18065;55.876;9.830;2023-12-20T13:23:37;23.20;47.25
31443;SHT31;18065;55.876;9.830;2023-12-20T13:26:05;23.22;47.25
31443;SHT31;18065;55.876;9.830;2023-12-20T13:28:35;23.17;47.26
31443;SHT31;18065;55.876;9.830;2023-12-20T13:31:04;23.17;47.12
31443;SHT31;18065;55.876;9.830;2023-12-20T13:33:35;23.14;47.18
31443;SHT31;18065;55.876;9.830;2023-12-20T13:36:05;23.14;47.07
31443;SHT31;18065;55.876;9.830;2023-12-20T13:38:34;23.13;47.07
31443;SHT31;18065;55.876;9.830;2023-12-20T13:41:03;23.13;47.12
31443;SHT31;18065;55.876;9.830;2023-12-20T13:43:34;23.12;47.12
31443;SHT31;18065;55.876;9.830;2023-12-20T13:46:03;23.10;47.09
31443;SHT31;18065;55.876;9.830;2023-12-20T13:48:35;23.07;47.06
31443;SHT31;18065;55.876;9.830;2023-12-20T13:51:04;23.06;47.10
31443;SHT31;18065;55.876;9.830;2023-12-20T13:53:33;23.06;47.12
31443;SHT31;18065;55.876;9.830;2023-12-20T13:56:02;23.04;47.19
31443;SHT31;18065;55.876;9.830;2023-12-20T13:58:32;23.07;47.14
31443;SHT31;18065;55.876;9.830;2023-12-20T14:01:01;23.04;47.15
31443;SHT31;18065;55.876;9.830;2023-12-20T14:03:29;23.02;47.20
31443;SHT31;18065;55.876;9.830;2023-12-20T14:06:02;23.06;47.12
31443;SHT31;18065;55.876;9.830;2023-12-20T14:08:31;23.02;47.16
31443;SHT31;18065;55.876;9.830;2023-12-20T14:11:00;23.02;47.24
31443;SHT31;18065;55.876;9.830;2023-12-20T14:13:29;23.00;47.32
31443;SHT31;18065;55.876;9.830;2023-12-20T14:15:58;22.99;47.23
31443;SHT31;18065;55.876;9.830;2023-12-20T14:18:28;22.99;47.24
31443;SHT31;18065;55.876;9.830;2023-12-20T14:20:57;23.00;47.24
31443;SHT31;18065;55.876;9.830;2023-12-20T14:23:29;22.99;47.26
31443;SHT31;18065;55.876;9.830;2023-12-20T14:25:59;22.95;47.23
31443;SHT31;18065;55.876;9.830;2023-12-20T14:28:29;22.97;47.21
31443;SHT31;18065;55.876;9.830;2023-12-20T14:30:58;22.93;47.28
31443;SHT31;18065;55.876;9.830;2023-12-20T14:33:26;22.95;47.28
31443;SHT31;18065;55.876;9.830;2023-12-20T14:35:55;22.96;47.18
31443;SHT31;18065;55.876;9.830;2023-12-20T14:38:24;22.92;47.10
31443;SHT31;18065;55.876;9.830;2023-12-20T14:40:56;22.66;47.38
31443;SHT31;18065;55.876;9.830;2023-12-20T14:43:26;22.49;47.70
31443;SHT31;18065;55.876;9.830;2023-12-20T14:45:55;22.42;47.91
31443;SHT31;18065;55.876;9.830;2023-12-20T14:48:24;22.39;48.08
31443;SHT31;18065;55.876;9.830;2023-12-20T14:50:53;22.37;47.41
31443;SHT31;18065;55.876;9.830;2023-12-20T14:53:22;22.31;47.31
31443;SHT31;18065;55.876;9.830;2023-12-20T14:55:51;22.24;47.45
31443;SHT31;18065;55.876;9.830;2023-12-20T14:58:22;22.22;47.46
31443;SHT31;18065;55.876;9.830;2023-12-20T15:00:52;22.16;47.48
31443;SHT31;18065;55.876;9.830;2023-12-20T15:03:21;22.16;47.50
31443;SHT31;18065;55.876;9.830;2023-12-20T15:05:50;22.14;47.38
31443;SHT31;18065;55.876;9.830;2023-12-20T15:08:19;22.11;47.42
31443;SHT31;18065;55.876;9.830;2023-12-20T15:10:48;22.08;47.39
31443;SHT31;18065;55.876;9.830;2023-12-20T15:13:17;22.06;47.54
31443;SHT31;18065;55.876;9.830;2023-12-20T15:15:48;22.01;47.46
31443;SHT31;18065;55.876;9.830;2023-12-20T15:18:17;22.03;47.47
31443;SHT31;18065;55.876;9.830;2023-12-20T15:20:46;22.00;47.48
31443;SHT31;18065;55.876;9.830;2023-12-20T15:23:16;21.97;47.62
31443;SHT31;18065;55.876;9.830;2023-12-20T15:25:47;21.98;47.60
31443;SHT31;18065;55.876;9.830;2023-12-20T15:28:16;21.97;47.61
31443;SHT31;18065;55.876;9.830;2023-12-20T15:30:47;21.93;47.38
31443;SHT31;18065;55.876;9.830;2023-12-20T15:33:16;21.97;47.21
31443;SHT31;18065;55.876;9.830;2023-12-20T15:35:45;21.93;47.07
31443;SHT31;18065;55.876;9.830;2023-12-20T15:38:14;21.92;47.08
31443;SHT31;18065;55.876;9.830;2023-12-20T15:40:43;21.92;46.94
31443;SHT31;18065;55.876;9.830;2023-12-20T15:43:12;21.94;46.88
31443;SHT31;18065;55.876;9.830;2023-12-20T15:45:41;21.94;46.83